• Join FlightAware (Why Join?)
  • Login
  • US Flag 
02:09PM EDT


 

Airport Tracker/Info


-or-


 

Live Flight TrackerFlight Track Log ✈ ASQ6177 ✈ 18-Jul-2013 ✈ KEWR - KIAD

Flight Track Log - Related Links

Times and Time Zones

All times are in EDT time to prevent confusion due to time zone crossing. See the ASQ6177 flight status page for this flight to view local times or setup timezone preferences in your user account.

Time Position Orientation Groundspeed Altitude Reporting Facility
EDT Latitude Longitude Course Direction KTS MPH feet Rate Location/Type
06:19AM 40.6667 -74.1833 270° West 172 198 1,000  Level New York TRACON
06:20AM 40.6333 -74.2167 217° Southwest 233 268 2,600 2,160 Climbing New York TRACON
06:21AM 40.6333 -74.3167 270° West 260 299 5,400 2,700 Climbing New York TRACON
06:22AM 40.6333 -74.4167 270° West 263 303 8,100 2,700 Climbing New York TRACON
06:23AM 40.6834 -74.6068 270° West  Level FlightAware Approximate
06:23AM 40.6500 -74.5000 285° West 273 314 10,800  Level New York TRACON
06:24AM 40.6833 -74.7168 270° West  Level FlightAware Approximate
06:25AM 40.6834 -74.8268 270° West  Level FlightAware Approximate
06:25AM 40.6547 -74.6308 273° West 273 314 13,400  Level New York Center
06:26AM 40.6619 -74.7269 276° West 289 333 15,200 1,260 Climbing New York Center
06:27AM 40.6917 -74.8381 289° West 295 339 16,000 360 Climbing New York Center
06:28AM 40.6936 -74.9558 271° West 310 357 16,000 120 Level New York Center
06:29AM 40.6850 -75.0786 265° West 333 383 16,300 900 Climbing New York Center
06:30AM 40.6744 -75.2011 264° West 349 402 17,800 1,320 Climbing New York Center
06:31AM 40.6636 -75.3181 263° West 349 402 19,000 660 Climbing New York Center
06:32AM 40.6236 -75.4356 246° West 349 402 19,200 480 Climbing New York Center
06:33AM 40.5608 -75.5433 233° Southwest 356 410 20,000 360 Climbing New York Center
06:34AM 40.4914 -75.6642 233° Southwest 390 449 20,000  Level New York Center
06:35AM 40.4217 -75.7844 233° Southwest 407 468 20,000  Level New York Center
06:36AM 40.3431 -75.9178 232° Southwest 426 490 20,000  Level New York Center
06:37AM 40.2736 -76.0294 231° Southwest 426 490 20,000 -240 Level New York Center
06:38AM 40.2036 -76.1467 232° Southwest 426 490 19,600 -840 Descending New York Center
06:39AM 40.1333 -76.2689 233° Southwest 397 457 18,400 -1,020 Descending New York Center
06:40AM 40.0758 -76.3864 237° Southwest 392 451 17,700 -960 Descending New York Center
06:41AM 39.9833 -76.6000 241° Southwest 379 436 15,800 -1,020 Descending Potomac TRACON
06:42AM 39.9333 -76.7167 241° Southwest 373 429 15,000 -480 Descending Potomac TRACON
06:43AM 39.8833 -76.8167 237° Southwest 378 435 15,000  Level Potomac TRACON
06:44AM 39.8333 -76.9167 237° Southwest 380 437 15,000 -600 Level Potomac TRACON
06:45AM 39.7833 -77.0333 241° Southwest 383 441 13,900 -1,380 Descending Potomac TRACON
06:46AM 39.7167 -77.1500 233° Southwest 366 421 12,400 -1,500 Descending Potomac TRACON
06:47AM 39.6667 -77.2500 237° Southwest 326 375 10,900 -1,440 Descending Potomac TRACON
06:48AM 39.6167 -77.3333 232° Southwest 295 339 9,600 -1,200 Descending Potomac TRACON
06:49AM 39.5500 -77.3500 191° South 284 327 8,700 -960 Descending Potomac TRACON
06:50AM 39.4833 -77.3500 180° South 290 334 7,900 -900 Descending Potomac TRACON
06:51AM 39.4000 -77.3667 189° South 290 334 7,000 -1,200 Descending Potomac TRACON
06:52AM 39.3167 -77.3667 180° South 261 300 5,600 -1,020 Descending Potomac TRACON
06:53AM 39.2667 -77.3667 180° South 248 285 5,100 -840 Descending Potomac TRACON
06:54AM 39.1833 -77.3667 180° South 251 289 4,100 -600 Descending Potomac TRACON
06:55AM 39.1333 -77.3667 180° South 244 281 4,000 -60 Descending Potomac TRACON
06:56AM 39.0667 -77.3500 169° South 249 287 4,000  Level Potomac TRACON
06:57AM 39.0000 -77.3500 180° South 252 290 4,000  Level Potomac TRACON
06:58AM 38.9167 -77.3500 180° South 254 292 4,000  Level Potomac TRACON
06:59AM 38.8667 -77.3667 195° South 248 285 4,000 -360 Level Potomac TRACON
07:00AM 38.8000 -77.3667 180° South 210 242 3,400 -840 Descending Potomac TRACON
07:01AM 38.7667 -77.4000 218° Southwest 209 241 2,400 -1,020 Descending Potomac TRACON